createdAt,value
2022-08-20T19:57:08.162Z,24.38
2022-08-20T19:59:37.943Z,24.03
2022-08-20T20:02:20.065Z,23.83
2022-08-20T20:04:55.446Z,23.65
2022-08-20T20:07:39.885Z,23.45
2022-08-20T20:10:12.128Z,23.25
2022-08-20T20:12:41.154Z,23.07
2022-08-20T20:15:10.979Z,22.95
2022-08-20T20:17:41.419Z,22.80
2022-08-20T20:20:32.727Z,22.69
2022-08-20T20:23:16.365Z,22.61
2022-08-20T20:25:49.466Z,22.53
2022-08-20T20:28:20.754Z,22.46
2022-08-20T20:30:50.115Z,22.39
2022-08-20T20:33:32.489Z,22.33
2022-08-20T20:36:06.536Z,22.23
2022-08-20T20:38:39.643Z,22.19
2022-08-20T20:41:20.946Z,22.12
2022-08-20T20:44:00.629Z,22.07
2022-08-20T20:46:32.936Z,22.02
2022-08-20T20:57:18.752Z,21.87
2022-08-20T21:00:02.005Z,21.88
2022-08-20T21:02:31.673Z,21.89
2022-08-20T21:05:01.931Z,21.91
2022-08-20T21:07:35.068Z,21.91
2022-08-20T21:10:05.225Z,21.97
2022-08-20T21:12:35.890Z,22.06
2022-08-20T21:15:12.727Z,22.12
2022-08-20T21:17:44.028Z,22.17
2022-08-20T21:20:17.939Z,22.21
2022-08-20T21:22:47.357Z,22.26
2022-08-20T21:25:19.661Z,22.29
2022-08-20T21:27:52.672Z,22.27
2022-08-20T21:30:24.299Z,22.24
2022-08-20T21:32:53.981Z,22.22
2022-08-20T21:35:23.498Z,22.18
2022-08-20T21:37:53.053Z,22.13
2022-08-20T21:40:22.505Z,22.16
2022-08-20T21:42:58.477Z,22.17
2022-08-20T21:45:28.464Z,22.17
2022-08-20T21:47:58.389Z,22.13
2022-08-20T21:50:28.880Z,22.05
2022-08-20T21:52:59.784Z,22.02
2022-08-20T21:55:38.780Z,22.01
2022-08-20T21:58:10.734Z,22.05
2022-08-20T22:00:56.933Z,22.08
2022-08-20T22:03:31.491Z,22.10
2022-08-20T22:06:07.895Z,22.12
2022-08-20T22:08:36.738Z,22.16
2022-08-20T22:11:08.676Z,22.16
2022-08-20T22:13:39.757Z,22.15
2022-08-20T22:16:12.205Z,22.12
2022-08-20T22:18:42.197Z,22.07
2022-08-20T22:21:17.103Z,22.08
2022-08-20T22:23:47.630Z,22.03
2022-08-20T22:26:18.198Z,21.98
2022-08-20T22:28:51.301Z,21.93
2022-08-20T22:31:27.796Z,21.92
2022-08-20T22:33:57.864Z,21.95
2022-08-20T22:36:27.473Z,21.97
2022-08-20T22:38:57.192Z,21.95
2022-08-20T22:41:27.381Z,21.98
2022-08-20T22:43:57.450Z,22.03
2022-08-20T22:46:34.556Z,22.09
2022-08-20T22:49:07.185Z,22.11
2022-08-20T22:51:38.757Z,22.16
2022-08-20T22:54:10.937Z,22.20
2022-08-20T22:56:40.954Z,22.22
2022-08-20T22:59:09.317Z,22.26
2022-08-20T23:01:40.727Z,22.27
2022-08-20T23:04:27.721Z,22.30
2022-08-20T23:06:58.626Z,22.29
2022-08-20T23:09:29.305Z,22.29
2022-08-20T23:11:59.302Z,22.34
2022-08-20T23:14:28.433Z,22.37
2022-08-20T23:17:11.340Z,22.35
2022-08-20T23:19:43.201Z,22.32
2022-08-20T23:22:13.269Z,22.31
2022-08-20T23:24:42.868Z,22.30
2022-08-20T23:27:15.479Z,22.33
2022-08-20T23:29:45.306Z,22.37
2022-08-20T23:32:14.629Z,22.39
2022-08-20T23:34:44.055Z,22.40
2022-08-20T23:37:14.262Z,22.41
2022-08-20T23:39:46.926Z,22.41
2022-08-20T23:42:16.519Z,22.36
2022-08-20T23:44:46.394Z,22.32
2022-08-20T23:47:20.136Z,22.36
2022-08-20T23:49:48.674Z,22.36
2022-08-20T23:52:17.633Z,22.36
2022-08-20T23:54:46.302Z,22.30
2022-08-20T23:57:15.234Z,22.28
2022-08-20T23:59:51.344Z,22.25
